Aviation Digital Data Service (ADDS)

Output produced by METARs form (1008 UTC 21 October 2019)
found at http://aviationweather.gov/metar/data/
 
METAR text: EDDM 210950Z 17003KT 110V210 CAVOK 13/11 Q1020 NOSIG
Conditions at: EDDM (MUNICH-FLUGHAFEN, DE) observed 0950 UTC 21 October 2019
Temperature: 13.0°C (55°F)
Dewpoint: 11.0°C (52°F) [RH = 88%]
Pressure (altimeter): 30.12 inches Hg (1020.0 mb)
Winds: from the S (170 degrees) at 3 MPH (3 knots; 1.5 m/s)
Visibility: 6 or more miles (10+ km)
Ceiling: ceiling and visibility are OK
Clouds: unknown
Weather: no significant weather observed at this time

METAR text: EDDM 210920Z VRB02KT CAVOK 13/11 Q1019 NOSIG
Conditions at: EDDM (MUNICH-FLUGHAFEN, DE) observed 0920 UTC 21 October 2019
Temperature: 13.0°C (55°F)
Dewpoint: 11.0°C (52°F) [RH = 88%]
Pressure (altimeter): 30.09 inches Hg (1019.0 mb)
Winds: variable direction winds at 2 MPH (2 knots; 1.0 m/s)
Visibility: 6 or more miles (10+ km)
Ceiling: ceiling and visibility are OK
Clouds: unknown
Weather: no significant weather observed at this time

METAR text: EDDM 210850Z VRB01KT CAVOK 13/11 Q1019 NOSIG
Conditions at: EDDM (MUNICH-FLUGHAFEN, DE) observed 0850 UTC 21 October 2019
Temperature: 13.0°C (55°F)
Dewpoint: 11.0°C (52°F) [RH = 88%]
Pressure (altimeter): 30.09 inches Hg (1019.0 mb)
Winds: variable direction winds at 1 MPH (1 knots; 0.5 m/s)
Visibility: 6 or more miles (10+ km)
Ceiling: ceiling and visibility are OK
Clouds: unknown
Weather: no significant weather observed at this time

METAR text: EDDM 210820Z VRB02KT CAVOK 12/10 Q1018 NOSIG
Conditions at: EDDM (MUNICH-FLUGHAFEN, DE) observed 0820 UTC 21 October 2019
Temperature: 12.0°C (54°F)
Dewpoint: 10.0°C (50°F) [RH = 88%]
Pressure (altimeter): 30.06 inches Hg (1018.0 mb)
Winds: variable direction winds at 2 MPH (2 knots; 1.0 m/s)
Visibility: 6 or more miles (10+ km)
Ceiling: ceiling and visibility are OK
Clouds: unknown
Weather: no significant weather observed at this time

Forecast for: EDDM (MUNICH-FLUGHAFEN, DE)
Text: TAF EDDM 210500Z 2106/2212 VRB03KT CAVOK
Forecast period: 0600 UTC 21 October 2019 to 0000 UTC 22 October 2019
Forecast type: FROM: standard forecast or significant change
Winds: variable direction winds at 3 MPH (3 knots; 1.5 m/s)
Visibility: 6 or more miles 10+ km)
Ceiling: unknown
Clouds: missing
Weather: NSW  (no significant weather)
Text: TEMPO 2108/2116 32005KT
Forecast period: 0800 to 1600 UTC 21 October 2019
Forecast type: TEMPORARY: The following changes expected for less than half the time period
Winds: from the NW (320 degrees) at 6 MPH (5 knots; 2.6 m/s)
Visibility: missing
Ceiling: unknown
Clouds: missing
Weather: no significant weather forecast for this period
Text: BECMG 2200/2203 1500 BCFG
Forecast period: 0000 to 0600 UTC 22 October 2019
Forecast type: BECOMING: Conditions expected to become as follows by 0300 UTC 22 October 2019
Winds: variable direction winds at 3 MPH (3 knots; 1.5 m/s)
Visibility: 0.93 miles (1.50 km)
Ceiling: unknown
Clouds: missing
Weather: BCFG  (patches of fog)
Text: PROB30
Forecast period: 0400 to 0700 UTC 22 October 2019
Forecast type: TEMPORARY: The following changes expected for less than half the time period
Visibility: 0.43 miles (0.69 km)
Ceiling: indefinite ceiling with vertical visibility of 100 feet AGL
Clouds: obscured sky
Weather: FG  (fog)
Text: TEMPO 2204/2207 0700 FG VV001
Forecast period: 0600 to 0800 UTC 22 October 2019
Forecast type: BECOMING: Conditions expected to become as follows by 0800 UTC 22 October 2019
Winds: variable direction winds at 3 MPH (3 knots; 1.5 m/s)
Visibility: 1.86 miles (2.99 km)
Ceiling: 300 feet AGL
Clouds: broken clouds at 300 feet AGL
Weather: BR  (mist)
Text: BECMG 2206/2208 3000 BR BKN003
Forecast period: 0800 to 1200 UTC 22 October 2019
Forecast type: BECOMING: Conditions expected to become as follows by 1000 UTC 22 October 2019
Winds: from the NE (40 degrees) at 6 MPH (5 knots; 2.6 m/s)
Visibility: 5 miles (8 km)
Ceiling: at least 12,000 feet AGL
Clouds: scattered clouds at 800 feet AGL
Weather: BR  (mist)